»·PEaware :: DAL2002 KPDX-KBOI

DAL2002 :: KPDX-KBOI

FLIGHT INFORMATION

Flight Status: Arrived
Operator:
Delta Air Lines
More flights by this operator :: More flights under this callsign
Pilot: Adrian B. (13026)
Aircraft: BOEING 737-800
(B738)
More flights by this aircraft type
Origin: KPDX Portland Intl
United States
Destination: KBOI Boise Air Terminal/Gowen
United States
More flights between these airports :: More routes between these airports
Route: WHAMY4 IMB HOSTS PARMO3
File this flight plan on PilotEdge
Remarks: PBN / A1B1C1D1S1S2 DOF / 180813 REG / N806SB EET / KZLC0029 OPR / DAL PER / C RMK / TCAS SIMBRIEF
Altitude:
(Current/Filed)
35,000ft
Speed:
(Current/Filed)
456kts
Departed: 13-Aug-18 08:52 AM
Arrived: 13-Aug-18 09:50 AM
Distance/Time
Traveled:
298nm/0:58
Distance/Time
To Go:
Arrived

Flight Plot

Page will automatically refresh every two minutes.

Flight plan parsing failed; only flown route is shown


Map Options




Map Legend


Flown Route
Filed Route
Departure Airport
Arrival Airport
Navaid (VOR, NDB)
Fix

Horizontal Profiles

Position Reports

Time Latitude Longitude Heading Altitude Ground
Speed
13-Aug-18 08:21 45.591837 -122.595841 233 31ft 0kts
13-Aug-18 08:22 45.591837 -122.595841 233 31ft 0kts
13-Aug-18 08:23 45.591837 -122.595841 233 31ft 0kts
13-Aug-18 08:24 45.591837 -122.595841 233 31ft 0kts
13-Aug-18 08:25 45.591837 -122.595841 233 31ft 0kts
13-Aug-18 08:26 45.591837 -122.595841 233 31ft 0kts
13-Aug-18 08:27 45.591837 -122.595841 233 31ft 0kts
13-Aug-18 08:28 45.591837 -122.595841 233 31ft 0kts
13-Aug-18 08:29 45.591837 -122.595841 233 31ft 0kts
13-Aug-18 08:30 45.591837 -122.595841 233 31ft 0kts
13-Aug-18 08:31 45.591837 -122.595841 233 31ft 0kts
13-Aug-18 08:32 45.591837 -122.595841 233 31ft 0kts
13-Aug-18 08:33 45.591837 -122.595841 233 31ft 0kts
13-Aug-18 08:34 45.591837 -122.595841 233 31ft 0kts
13-Aug-18 08:35 45.591956 -122.595609 233 31ft 2kts
13-Aug-18 08:36 45.592386 -122.595186 178 31ft 2kts
13-Aug-18 08:37 45.592794 -122.595561 115 31ft 1kts
13-Aug-18 08:38 45.592800 -122.595581 116 31ft 0kts
13-Aug-18 08:39 45.592790 -122.595551 117 31ft 1kts
13-Aug-18 08:40 45.592639 -122.595337 128 31ft 0kts
13-Aug-18 08:41 45.592639 -122.595337 128 31ft 0kts
13-Aug-18 08:42 45.592639 -122.595337 128 31ft 0kts
13-Aug-18 08:43 45.592639 -122.595337 128 31ft 0kts
13-Aug-18 08:44 45.592633 -122.595326 128 31ft 0kts
13-Aug-18 08:45 45.591680 -122.593011 119 31ft 12kts
13-Aug-18 08:46 45.589521 -122.587500 97 31ft 14kts
13-Aug-18 08:47 45.587583 -122.580323 118 31ft 24kts
13-Aug-18 08:48 45.584320 -122.571950 119 31ft 24kts
13-Aug-18 08:49 45.582759 -122.567442 66 31ft 0kts
13-Aug-18 08:50 45.582759 -122.567442 66 31ft 0kts
13-Aug-18 08:51 45.582892 -122.567137 52 31ft 7kts
13-Aug-18 08:52 45.584192 -122.568459 297 31ft 24kts
13-Aug-18 08:53 45.601615 -122.611004 302 1089ft 164kts
13-Aug-18 08:54 45.621305 -122.684621 299 2741ft 245kts
13-Aug-18 08:55 45.657472 -122.773324 300 5951ft 270kts
13-Aug-18 08:56 45.661813 -122.877898 252 9097ft 284kts
13-Aug-18 08:57 45.593310 -122.918336 163 11438ft 318kts
13-Aug-18 08:58 45.524960 -122.842952 114 14252ft 334kts
13-Aug-18 08:59 45.486720 -122.719328 112 16764ft 349kts
13-Aug-18 09:00 45.446911 -122.590590 113 19286ft 365kts
13-Aug-18 09:01 45.405957 -122.459261 113 21592ft 379kts
13-Aug-18 09:02 45.362895 -122.322102 113 23678ft 393kts
13-Aug-18 09:03 45.317447 -122.178137 113 25589ft 407kts
13-Aug-18 09:04 45.270226 -122.029600 114 27387ft 419kts
13-Aug-18 09:05 45.226100 -121.873677 109 28893ft 434kts
13-Aug-18 09:06 45.185418 -121.713237 109 30802ft 433kts
13-Aug-18 09:07 45.144570 -121.554304 109 32616ft 431kts
13-Aug-18 09:08 45.103237 -121.395077 109 34113ft 432kts
13-Aug-18 09:09 45.062159 -121.238015 111 35148ft 441kts
13-Aug-18 09:10 45.017725 -121.069071 114 35151ft 476kts
13-Aug-18 09:11 44.970290 -120.890349 116 35143ft 494kts
13-Aug-18 09:12 44.921588 -120.708337 116 35154ft 495kts
13-Aug-18 09:13 44.873313 -120.529451 116 35177ft 495kts
13-Aug-18 09:14 44.824326 -120.349337 117 35192ft 494kts
13-Aug-18 09:15 44.775703 -120.171493 117 35194ft 494kts
13-Aug-18 09:16 44.726109 -119.991513 117 35202ft 494kts
13-Aug-18 09:17 44.676294 -119.812190 117 35204ft 494kts
13-Aug-18 09:18 44.625798 -119.634150 118 35206ft 493kts
13-Aug-18 09:19 44.572269 -119.458344 119 35207ft 492kts
13-Aug-18 09:20 44.518798 -119.286097 119 35198ft 491kts
13-Aug-18 09:21 44.464575 -119.110632 119 35200ft 492kts
13-Aug-18 09:22 44.410626 -118.935275 119 35201ft 491kts
13-Aug-18 09:23 44.357941 -118.762858 118 35188ft 460kts
13-Aug-18 09:24 44.307656 -118.598131 118 34466ft 461kts
13-Aug-18 09:25 44.257678 -118.433467 118 33507ft 464kts
13-Aug-18 09:26 44.208360 -118.270124 117 30660ft 477kts
13-Aug-18 09:27 44.160106 -118.109260 118 30559ft 448kts
13-Aug-18 09:28 44.111928 -117.948450 117 30547ft 451kts
13-Aug-18 09:29 44.063711 -117.786842 116 28989ft 465kts
13-Aug-18 09:30 44.015618 -117.624631 116 26631ft 445kts
13-Aug-18 09:31 43.968899 -117.470034 117 24322ft 427kts
13-Aug-18 09:32 43.922256 -117.323903 117 22155ft 409kts
13-Aug-18 09:33 43.877523 -117.184014 117 20149ft 391kts
13-Aug-18 09:34 43.834410 -117.049860 116 18221ft 375kts
13-Aug-18 09:35 43.794003 -116.920114 110 16652ft 352kts
13-Aug-18 09:36 43.752183 -116.801404 131 14675ft 347kts
13-Aug-18 09:37 43.691576 -116.700527 130 13016ft 336kts
13-Aug-18 09:38 43.633949 -116.602412 129 11430ft 326kts
13-Aug-18 09:39 43.578368 -116.507641 129 9802ft 307kts
13-Aug-18 09:40 43.538453 -116.409131 115 8591ft 285kts
13-Aug-18 09:41 43.506431 -116.314929 113 7517ft 268kts
13-Aug-18 09:42 43.477897 -116.223737 112 6989ft 244kts
13-Aug-18 09:43 43.452394 -116.143307 112 7001ft 230kts
13-Aug-18 09:44 43.426593 -116.062070 112 7000ft 232kts
13-Aug-18 09:45 43.426926 -115.983263 37 7009ft 215kts
13-Aug-18 09:46 43.476738 -115.993215 323 6996ft 189kts
13-Aug-18 09:47 43.503696 -116.048666 294 5870ft 168kts
13-Aug-18 09:48 43.522714 -116.104337 296 4397ft 157kts
13-Aug-18 09:49 43.541217 -116.158653 295 3626ft 156kts
13-Aug-18 09:50 43.559671 -116.212276 295 2883ft 152kts
13-Aug-18 09:51 43.566708 -116.230009 24 2879ft 0kts
13-Aug-18 09:52 43.567015 -116.229804 26 2879ft 7kts
13-Aug-18 09:53 43.567896 -116.226575 115 2879ft 12kts
13-Aug-18 09:54 43.566234 -116.221702 115 2879ft 10kts
13-Aug-18 09:55 43.566811 -116.220350 27 2879ft 6kts
13-Aug-18 09:56 43.567026 -116.220180 31 2879ft 0kts

Navigation Log

Ident Type
Flight plan parsing failed, navigation log unavailable